Time;durP1;ratioP1;P1;durP2;ratioP2;P2;SDS_P1;SDS_P2;PMS_P1;PMS_P2;Temp;Humidity;BMP_temperature;BMP_pressure;BME280_temperature;BME280_humidity;BME280_pressure;Samples;Min_cycle;Max_cycle;Signal;HPM_P1;HPM_P2
2023/04/16 00:00:53;;;;;;;;;11.50;10.50;;;;;12.78;49.57;101806.16;2097968;28;47019;-66
2023/04/16 00:01:54;;;;;;;;;10.25;9.00;;;;;12.75;49.52;101799.09;2096863;28;46939;-66
2023/04/16 00:02:55;;;;;;;;;9.40;9.40;;;;;12.74;49.71;101808.00;2097092;28;45210;-65
2023/04/16 00:03:55;;;;;;;;;10.25;9.00;;;;;12.74;49.68;101801.78;2097143;28;46218;-65
2023/04/16 00:04:55;;;;;;;;;10.75;8.50;;;;;12.73;49.78;101808.91;2097546;28;46739;-66
2023/04/16 00:05:56;;;;;;;;;7.25;7.25;;;;;12.73;49.82;101806.22;2085838;28;46340;-65
2023/04/16 00:06:56;;;;;;;;;10.25;9.75;;;;;12.74;49.78;101804.44;2088042;28;46453;-65
2023/04/16 00:07:56;;;;;;;;;9.75;9.75;;;;;12.73;49.79;101808.03;2079881;28;46419;-64
2023/04/16 00:08:57;;;;;;;;;7.00;7.00;;;;;12.71;49.84;101801.84;2079758;28;46492;-65
2023/04/16 00:09:57;;;;;;;;;9.00;8.25;;;;;12.68;49.89;101811.59;2096670;28;46880;-66
2023/04/16 00:10:57;;;;;;;;;7.00;7.00;;;;;12.67;49.89;101803.63;2094968;28;46460;-65
2023/04/16 00:11:58;;;;;;;;;8.00;8.00;;;;;12.67;49.83;101804.50;2096930;28;47125;-65
2023/04/16 00:12:58;;;;;;;;;9.67;8.67;;;;;12.65;49.90;101803.66;2089577;28;47336;-66
2023/04/16 00:13:59;;;;;;;;;8.00;6.00;;;;;12.63;49.98;101802.81;2096020;28;46140;-65
2023/04/16 00:14:59;;;;;;;;;7.00;7.00;;;;;12.62;50.00;101810.81;2088232;28;46449;-65
2023/04/16 00:16:00;;;;;;;;;9.33;8.67;;;;;12.62;50.04;101808.16;2087830;28;46765;-65
2023/04/16 00:17:00;;;;;;;;;12.75;11.25;;;;;12.61;50.05;101804.59;2099616;28;46211;-64
2023/04/16 00:18:00;;;;;;;;;7.50;7.50;;;;;12.59;50.08;101800.22;2096096;28;46818;-65
2023/04/16 00:19:01;;;;;;;;;12.25;12.25;;;;;12.58;50.25;101815.31;2096340;28;46915;-65
2023/04/16 00:20:01;;;;;;;;;18.25;16.50;;;;;12.56;50.33;101808.22;2093986;28;45608;-65
2023/04/16 00:21:02;;;;;;;;;16.25;14.25;;;;;12.54;50.48;101810.91;2096723;28;46586;-65
2023/04/16 00:22:02;;;;;;;;;11.25;11.00;;;;;12.54;50.49;101816.22;2097279;28;45769;-63
2023/04/16 00:23:02;;;;;;;;;12.00;12.00;;;;;12.53;50.45;101811.81;2097456;28;46379;-65
2023/04/16 00:24:03;;;;;;;;;10.75;9.50;;;;;12.53;50.61;101809.13;2096951;28;46493;-65
2023/04/16 00:25:03;;;;;;;;;11.25;9.00;;;;;12.52;50.56;101812.72;2097286;28;46286;-65
2023/04/16 00:26:04;;;;;;;;;11.00;10.00;;;;;12.50;50.52;101811.84;2088582;28;46844;-65
2023/04/16 00:27:05;;;;;;;;;6.50;6.50;;;;;12.49;50.82;101804.75;2087583;28;46640;-64
2023/04/16 00:28:05;;;;;;;;;10.40;9.40;;;;;12.51;50.82;101820.72;2091843;28;46970;-65
2023/04/16 00:29:06;;;;;;;;;12.00;11.00;;;;;12.50;50.81;101813.63;2096837;28;46353;-65
2023/04/16 00:30:06;;;;;;;;;9.75;9.75;;;;;12.50;50.66;101811.84;2097211;28;45956;-65
2023/04/16 00:31:07;;;;;;;;;9.00;8.25;;;;;12.50;50.83;101816.28;2096904;28;46690;-65
2023/04/16 00:32:07;;;;;;;;;10.50;7.50;;;;;12.49;50.79;101818.06;2087764;28;46247;-65
2023/04/16 00:33:07;;;;;;;;;7.00;7.00;;;;;12.49;50.88;101811.88;2089085;28;46703;-66
2023/04/16 00:34:08;;;;;;;;;5.75;5.75;;;;;12.49;50.93;101818.06;2096065;28;45627;-65
2023/04/16 00:35:08;;;;;;;;;9.75;9.75;;;;;12.48;50.88;101807.44;2093902;28;47494;-65
2023/04/16 00:36:09;;;;;;;;;9.50;8.00;;;;;12.48;51.01;101811.00;2087950;28;46706;-65
2023/04/16 00:37:09;;;;;;;;;9.00;9.00;;;;;12.49;51.05;101810.09;2087714;28;45450;-65
2023/04/16 00:38:09;;;;;;;;;9.50;8.00;;;;;12.49;51.13;101809.22;2096909;28;46589;-64
2023/04/16 00:39:10;;;;;;;;;10.00;9.75;;;;;12.50;50.98;101819.84;2097136;28;46633;-65
2023/04/16 00:40:10;;;;;;;;;9.00;9.00;;;;;12.49;50.87;101811.88;2096616;28;46247;-65
2023/04/16 00:41:11;;;;;;;;;10.50;10.00;;;;;12.48;51.02;101810.09;2097470;28;45597;-65
2023/04/16 00:42:11;;;;;;;;;8.50;8.50;;;;;12.47;51.08;101817.22;2096851;28;46177;-66
2023/04/16 00:43:20;;;;;;;;;7.00;7.00;;;;;12.46;51.25;101815.47;2097203;28;46938;-65
2023/04/16 00:44:20;;;;;;;;;6.60;6.60;;;;;12.46;51.25;101817.25;2097160;28;46268;-65
2023/04/16 00:45:21;;;;;;;;;11.25;8.00;;;;;12.45;51.12;101813.69;2096683;28;46312;-66
2023/04/16 00:46:22;;;;;;;;;8.25;8.00;;;;;12.46;51.23;101815.47;2097380;28;47031;-64
2023/04/16 00:47:23;;;;;;;;;7.20;7.20;;;;;12.46;51.13;101812.78;2096467;28;46576;-66
2023/04/16 00:48:26;;;;;;;;;7.50;7.50;;;;;12.44;51.28;101811.91;2101504;28;46217;-65
2023/04/16 00:49:27;;;;;;;;;10.40;9.60;;;;;12.43;51.26;101818.13;2098734;28;46344;-64
2023/04/16 00:50:28;;;;;;;;;8.00;8.00;;;;;12.44;51.11;101813.69;2096318;28;46474;-65
2023/04/16 00:51:30;;;;;;;;;9.20;7.80;;;;;12.42;51.36;101811.03;2096539;28;46542;-65
2023/04/16 00:52:31;;;;;;;;;9.80;8.80;;;;;12.42;51.38;101807.50;2096906;28;46172;-64
2023/04/16 00:53:33;;;;;;;;;10.20;9.00;;;;;12.41;51.39;101809.28;2097456;28;45846;-65
2023/04/16 00:54:34;;;;;;;;;9.80;7.00;;;;;12.41;51.33;101805.75;2096366;28;46389;-64
2023/04/16 00:55:36;;;;;;;;;6.80;6.80;;;;;12.41;51.31;101805.75;2096670;28;46280;-65
2023/04/16 00:56:36;;;;;;;;;10.40;10.40;;;;;12.40;51.38;101807.53;2096882;28;46689;-65
2023/04/16 00:57:37;;;;;;;;;5.25;5.25;;;;;12.40;51.33;101814.63;2097348;28;47024;-65
2023/04/16 00:58:37;;;;;;;;;8.75;6.25;;;;;12.39;51.59;101811.09;2103316;28;46815;-65
2023/04/16 00:59:37;;;;;;;;;9.00;8.00;;;;;12.39;51.48;101811.09;2100895;28;45610;-65
2023/04/16 01:00:38;;;;;;;;;9.00;9.00;;;;;12.40;51.47;101817.28;2099765;28;45584;-65
2023/04/16 01:01:38;;;;;;;;;7.25;7.25;;;;;12.38;51.41;101812.88;2097200;28;46609;-65
2023/04/16 01:02:38;;;;;;;;;7.25;7.25;;;;;12.38;51.58;101804.00;2096320;28;46579;-64
2023/04/16 01:03:43;;;;;;;;;6.25;6.25;;;;;12.38;51.77;101806.66;2097032;28;45962;-65
2023/04/16 01:04:44;;;;;;;;;8.20;8.20;;;;;12.37;51.70;101810.22;2096651;28;45847;-65
2023/04/16 01:05:45;;;;;;;;;17.00;14.00;;;;;12.37;51.69;101807.56;2097569;28;45610;-65
2023/04/16 01:06:45;;;;;;;;;11.40;10.80;;;;;12.36;51.52;101809.34;2096724;28;46940;-63
2023/04/16 01:07:46;;;;;;;;;11.75;9.50;;;;;12.36;51.57;101812.00;2096208;28;46687;-66
2023/04/16 01:08:47;;;;;;;;;9.00;9.00;;;;;12.36;51.62;101816.47;2096814;28;46561;-65
2023/04/16 01:09:47;;;;;;;;;6.00;6.00;;;;;12.37;51.51;101812.91;2097297;28;46084;-65
2023/04/16 01:10:47;;;;;;;;;8.25;8.25;;;;;12.37;51.63;101815.56;2087814;28;46682;-64
2023/04/16 01:11:48;;;;;;;;;6.50;5.75;;;;;12.37;51.58;101813.78;2087595;28;46668;-66
2023/04/16 01:12:48;;;;;;;;;8.75;8.25;;;;;12.36;51.63;101809.34;2091122;28;45715;-65
2023/04/16 01:13:48;;;;;;;;;9.50;7.75;;;;;12.36;51.60;101805.81;2094338;28;46305;-65
2023/04/16 01:14:49;;;;;;;;;9.00;9.00;;;;;12.35;51.82;101809.38;2096660;28;46126;-65
2023/04/16 01:15:50;;;;;;;;;8.25;8.00;;;;;12.33;51.75;101809.41;2096870;28;45793;-65
2023/04/16 01:16:50;;;;;;;;;8.50;7.50;;;;;12.35;51.68;101806.72;2096269;28;46257;-64
2023/04/16 01:17:50;;;;;;;;;6.75;6.00;;;;;12.32;51.84;101804.06;2096703;28;46432;-64
2023/04/16 01:18:51;;;;;;;;;8.75;6.25;;;;;12.33;51.87;101805.84;2086119;28;46511;-64
2023/04/16 01:19:51;;;;;;;;;9.00;8.00;;;;;12.32;51.65;101810.28;2088649;28;47284;-65
2023/04/16 01:20:52;;;;;;;;;8.00;8.00;;;;;12.32;51.80;101806.72;2096409;28;46512;-65
2023/04/16 01:21:52;;;;;;;;;7.00;7.00;;;;;12.32;51.87;101804.97;2096747;28;46512;-65
2023/04/16 01:22:52;;;;;;;;;10.75;8.50;;;;;12.30;52.06;101806.75;2097181;28;45553;-66
2023/04/16 01:23:53;;;;;;;;;9.33;7.00;;;;;12.29;52.32;101810.31;2096376;28;46683;-67
2023/04/16 01:24:53;;;;;;;;;9.25;8.00;;;;;12.29;51.99;101810.31;2086915;28;46379;-65
2023/04/16 01:25:53;;;;;;;;;8.00;8.00;;;;;12.28;51.93;101807.66;2087571;28;46339;-65
2023/04/16 01:26:54;;;;;;;;;8.00;8.00;;;;;12.27;51.95;101814.78;2086967;28;47156;-65
2023/04/16 01:27:56;;;;;;;;;8.00;8.00;;;;;12.27;52.08;101814.78;2087088;28;46830;-66
2023/04/16 01:28:56;;;;;;;;;8.00;8.00;;;;;12.27;52.05;101813.88;2087709;28;45978;-65
2023/04/16 01:29:57;;;;;;;;;8.50;8.50;;;;;12.25;51.88;101815.69;2086443;28;45404;-66
2023/04/16 01:30:57;;;;;;;;;8.00;8.00;;;;;12.24;52.19;101812.16;2087480;28;46627;-65
2023/04/16 01:31:57;;;;;;;;;8.00;8.00;;;;;12.23;51.98;101810.38;2087344;28;46135;-64
2023/04/16 01:32:58;;;;;;;;;10.25;9.00;;;;;12.22;52.10;101811.28;2087091;28;47162;-67
2023/04/16 01:33:58;;;;;;;;;7.00;6.50;;;;;12.22;51.90;101813.94;2087595;28;45681;-65
2023/04/16 01:34:58;;;;;;;;;8.00;8.00;;;;;12.20;52.33;101807.78;2090632;28;46259;-64
2023/04/16 01:35:59;;;;;;;;;13.00;10.00;;;;;12.20;51.95;101804.22;2095753;28;46627;-65
2023/04/16 01:36:59;;;;;;;;;11.00;10.50;;;;;12.20;52.01;101807.78;2088747;28;45315;-64
2023/04/16 01:37:59;;;;;;;;;12.00;8.25;;;;;12.18;51.93;101806.00;2087515;28;45787;-64
2023/04/16 01:39:00;;;;;;;;;9.33;9.33;;;;;12.16;52.04;101806.00;2087672;28;45496;-64
2023/04/16 01:40:00;;;;;;;;;9.75;8.75;;;;;12.15;52.22;101806.91;2092067;28;46313;-65
2023/04/16 01:41:00;;;;;;;;;10.00;9.00;;;;;12.15;52.22;101808.69;2095513;28;45765;-65
2023/04/16 01:42:01;;;;;;;;;9.00;7.75;;;;;12.14;52.23;101804.28;2087131;28;46297;-65
2023/04/16 01:43:01;;;;;;;;;7.25;7.25;;;;;12.14;52.32;101806.94;2087375;28;46630;-65
2023/04/16 01:44:02;;;;;;;;;9.25;7.75;;;;;12.13;52.40;101808.72;2087180;28;46658;-63
2023/04/16 01:45:03;;;;;;;;;8.25;8.25;;;;;12.12;52.19;101798.09;2087008;28;46517;-65
2023/04/16 01:46:28;;;;;;;;;7.20;7.00;;;;;12.11;52.36;101807.84;2086600;28;46574;-63
2023/04/16 01:47:28;;;;;;;;;8.60;8.60;;;;;12.10;52.43;101805.22;2070214;28;45821;-65
2023/04/16 01:48:28;;;;;;;;;9.25;9.25;;;;;12.09;52.34;101812.31;2070540;28;46769;-65
2023/04/16 01:49:29;;;;;;;;;12.00;9.00;;;;;12.08;52.55;101813.22;2065819;28;47566;-66
2023/04/16 01:50:30;;;;;;;;;7.25;7.00;;;;;12.08;52.46;101807.91;2070768;28;46521;-65
2023/04/16 01:51:31;;;;;;;;;9.00;7.00;;;;;12.06;52.48;101815.00;2070855;28;46415;-65
2023/04/16 01:52:31;;;;;;;;;10.00;8.00;;;;;12.06;52.51;101815.88;2070770;28;46255;-66
2023/04/16 01:53:31;;;;;;;;;9.00;9.00;;;;;12.07;52.74;101812.34;2070747;28;46470;-65
2023/04/16 01:54:32;;;;;;;;;9.50;8.25;;;;;12.06;52.68;101817.66;2071284;28;46018;-65
2023/04/16 01:55:33;;;;;;;;;12.00;9.50;;;;;12.05;52.75;101819.44;2062479;28;46364;-66
2023/04/16 01:56:33;;;;;;;;;10.00;8.80;;;;;12.04;52.65;101816.78;2062184;28;45724;-65
2023/04/16 01:57:33;;;;;;;;;12.00;10.50;;;;;12.04;52.78;101820.31;2063347;28;46029;-65
2023/04/16 01:58:34;;;;;;;;;10.00;9.00;;;;;12.02;52.87;101816.81;2070205;28;46365;-65
2023/04/16 01:59:34;;;;;;;;;10.60;10.00;;;;;12.02;52.69;101819.47;2064233;28;46790;-65
2023/04/16 02:00:35;;;;;;;;;10.00;8.25;;;;;12.03;52.76;101820.34;2062933;28;46483;-65
2023/04/16 02:01:35;;;;;;;;;8.50;8.00;;;;;12.01;52.87;101817.72;2062126;28;46057;-65
2023/04/16 02:02:36;;;;;;;;;8.25;8.00;;;;;12.02;52.87;101818.59;2063974;28;46447;-63
2023/04/16 02:03:36;;;;;;;;;11.25;10.00;;;;;12.00;52.92;101820.38;2062256;28;47879;-65
2023/04/16 02:04:39;;;;;;;;;10.00;9.00;;;;;12.01;52.84;101822.16;2061315;28;46484;-64
2023/04/16 02:05:40;;;;;;;;;9.00;9.00;;;;;11.99;53.16;101818.63;2061787;28;46432;-65
2023/04/16 02:06:40;;;;;;;;;9.00;7.25;;;;;11.98;52.98;101819.53;2062628;28;46363;-64
2023/04/16 02:07:40;;;;;;;;;9.50;8.00;;;;;11.98;53.21;101816.88;2062118;28;45851;-63
2023/04/16 02:08:41;;;;;;;;;8.00;8.00;;;;;11.98;53.18;101820.41;2062063;28;46771;-64
2023/04/16 02:09:41;;;;;;;;;11.00;9.25;;;;;11.97;53.20;101818.66;2062314;28;46223;-65
2023/04/16 02:10:45;;;;;;;;;9.67;7.67;;;;;11.96;53.12;101814.22;2061706;28;46549;-67
2023/04/16 02:11:45;;;;;;;;;12.00;9.40;;;;;11.94;53.29;101816.03;2062509;28;47158;-65
2023/04/16 02:12:46;;;;;;;;;10.50;9.00;;;;;11.94;53.01;101817.78;2056169;28;46380;-64
2023/04/16 02:13:46;;;;;;;;;7.33;7.33;;;;;11.93;53.35;101818.66;2050965;28;45740;-65
2023/04/16 02:14:47;;;;;;;;;10.00;8.00;;;;;11.91;53.27;101818.69;2064627;28;45925;-64
2023/04/16 02:15:48;;;;;;;;;9.00;7.25;;;;;11.92;53.17;101820.44;2060653;28;46377;-65
2023/04/16 02:16:49;;;;;;;;;7.75;7.50;;;;;11.92;53.32;101820.44;2063097;28;46414;-65
2023/04/16 02:17:53;;;;;;;;;9.00;8.00;;;;;11.92;53.10;101816.91;2062265;28;46614;-64
2023/04/16 02:18:54;;;;;;;;;8.75;8.75;;;;;11.94;53.20;101820.44;2062906;28;45878;-65
2023/04/16 02:19:54;;;;;;;;;9.50;9.25;;;;;11.94;53.27;101826.66;2061817;28;46480;-64
2023/04/16 02:20:58;;;;;;;;;9.75;9.25;;;;;11.96;53.51;101832.84;2063146;28;45996;-64
2023/04/16 02:22:00;;;;;;;;;5.60;5.60;;;;;11.96;53.33;101835.50;2062543;28;46480;-64
2023/04/16 02:23:00;;;;;;;;;8.00;8.00;;;;;11.96;53.54;101827.53;2062376;28;46677;-65
2023/04/16 02:24:01;;;;;;;;;10.50;7.75;;;;;11.97;53.58;101825.75;2054057;28;46280;-64
2023/04/16 02:25:01;;;;;;;;;11.50;8.75;;;;;11.96;53.59;101824.88;2067412;28;46741;-64
2023/04/16 02:26:02;;;;;;;;;7.00;7.00;;;;;11.95;53.38;101823.09;2079202;28;47011;-64
2023/04/16 02:27:02;;;;;;;;;9.75;9.00;;;;;11.94;53.53;101823.09;2083457;28;46887;-64
2023/04/16 02:28:03;;;;;;;;;8.75;7.00;;;;;11.94;53.57;101824.00;2088046;28;46653;-65
2023/04/16 02:29:03;;;;;;;;;8.75;8.75;;;;;11.93;53.52;101830.19;2096366;28;46192;-65
2023/04/16 02:30:04;;;;;;;;;10.00;10.00;;;;;11.93;53.48;101830.19;2096058;28;46459;-64
2023/04/16 02:31:04;;;;;;;;;10.00;9.00;;;;;11.92;53.66;101827.56;2096266;28;46548;-64
2023/04/16 02:32:05;;;;;;;;;8.75;8.75;;;;;11.93;53.65;101830.19;2097263;28;44979;-64
2023/04/16 02:33:07;;;;;;;;;11.67;11.67;;;;;11.91;53.62;101829.31;2086894;28;45563;-64
2023/04/16 02:34:07;;;;;;;;;9.20;9.00;;;;;11.89;53.49;101828.47;2086643;28;45802;-64
2023/04/16 02:35:08;;;;;;;;;7.75;7.50;;;;;11.87;53.67;101840.03;2087951;28;45592;-65
2023/04/16 02:36:10;;;;;;;;;9.75;9.75;;;;;11.86;53.56;101846.25;2086791;28;45435;-65
2023/04/16 02:37:10;;;;;;;;;9.20;9.20;;;;;11.87;53.58;101832.03;2077063;28;46185;-64
2023/04/16 02:38:10;;;;;;;;;10.00;8.75;;;;;11.84;53.63;101830.31;2087268;28;45680;-65
2023/04/16 02:39:11;;;;;;;;;8.25;7.00;;;;;11.83;53.89;101833.84;2096501;28;47084;-65
2023/04/16 02:40:11;;;;;;;;;12.50;10.75;;;;;11.84;53.90;101832.09;2098409;28;45401;-65
2023/04/16 02:41:11;;;;;;;;;8.75;8.00;;;;;11.83;53.58;101830.31;2087223;28;46188;-64
2023/04/16 02:42:13;;;;;;;;;10.67;9.33;;;;;11.81;53.87;101832.97;2087369;28;45122;-65
2023/04/16 02:43:13;;;;;;;;;9.25;9.00;;;;;11.81;53.69;101832.97;2085623;28;46501;-64
2023/04/16 02:44:13;;;;;;;;;9.75;8.25;;;;;11.79;53.48;101825.00;2087407;28;46402;-64
2023/04/16 02:45:14;;;;;;;;;8.00;8.00;;;;;11.79;53.63;101832.09;2089016;28;46010;-65
2023/04/16 02:46:14;;;;;;;;;12.25;9.25;;;;;11.78;53.55;101835.63;2087157;28;45671;-64
2023/04/16 02:47:14;;;;;;;;;10.00;9.00;;;;;11.77;53.44;101834.75;2086785;28;46792;-64
2023/04/16 02:48:15;;;;;;;;;7.00;7.00;;;;;11.76;53.14;101830.31;2088861;28;46292;-63
2023/04/16 02:49:15;;;;;;;;;10.25;10.25;;;;;11.75;53.43;101830.34;2088788;28;45527;-64
2023/04/16 02:50:16;;;;;;;;;8.50;8.50;;;;;11.72;53.63;101828.59;2088205;28;46333;-64
2023/04/16 02:51:17;;;;;;;;;7.60;7.60;;;;;11.71;53.48;101824.19;2087682;28;46665;-64
2023/04/16 02:52:17;;;;;;;;;10.75;8.75;;;;;11.68;53.78;101824.19;2087585;28;46612;-66
2023/04/16 02:53:17;;;;;;;;;8.00;7.25;;;;;11.67;53.83;101824.19;2088163;28;46291;-64
2023/04/16 02:54:18;;;;;;;;;8.75;7.75;;;;;11.67;53.74;101824.19;2088189;28;45040;-66
2023/04/16 02:55:18;;;;;;;;;7.75;7.75;;;;;11.66;53.83;101831.28;2087482;28;46437;-65
2023/04/16 02:56:18;;;;;;;;;7.67;7.67;;;;;11.66;53.71;101833.06;2095736;28;45206;-65
2023/04/16 02:57:19;;;;;;;;;9.00;7.00;;;;;11.65;53.83;101828.66;2095380;28;47001;-63
2023/04/16 02:58:20;;;;;;;;;7.50;6.75;;;;;11.64;53.66;101833.09;2094935;28;46727;-63
2023/04/16 02:59:21;;;;;;;;;8.80;8.80;;;;;11.64;53.73;101834.88;2091868;28;46367;-64
2023/04/16 03:00:21;;;;;;;;;8.50;8.00;;;;;11.64;53.58;101832.19;2087256;28;46402;-63
2023/04/16 03:01:21;;;;;;;;;7.00;7.00;;;;;11.64;53.68;101835.75;2082332;28;46732;-64
2023/04/16 03:02:22;;;;;;;;;8.00;8.00;;;;;11.65;53.73;101841.94;2088078;28;46473;-65
2023/04/16 03:03:22;;;;;;;;;8.25;7.25;;;;;11.64;53.79;101833.09;2087989;28;46819;-65
2023/04/16 03:04:22;;;;;;;;;7.75;7.75;;;;;11.65;53.65;101836.63;2087652;28;46455;-67
2023/04/16 03:05:23;;;;;;;;;7.50;7.50;;;;;11.64;53.89;101835.75;2087988;28;46062;-66
2023/04/16 03:06:23;;;;;;;;;6.00;6.00;;;;;11.64;53.88;101834.88;2087915;28;46700;-63
2023/04/16 03:07:23;;;;;;;;;9.00;8.00;;;;;11.62;53.69;101828.69;2098134;28;45696;-64
2023/04/16 03:08:24;;;;;;;;;11.00;8.50;;;;;11.60;53.91;101826.03;2103947;28;46512;-66
2023/04/16 03:09:24;;;;;;;;;9.50;8.50;;;;;11.62;53.66;101834.00;2088508;28;46402;-64
2023/04/16 03:10:25;;;;;;;;;8.00;6.75;;;;;11.61;53.69;101829.56;2086973;28;46466;-66
2023/04/16 03:11:25;;;;;;;;;9.00;9.00;;;;;11.60;53.77;101838.44;2088007;28;45269;-64
2023/04/16 03:12:26;;;;;;;;;12.00;10.25;;;;;11.59;53.92;101834.91;2087199;28;46197;-66
2023/04/16 03:13:26;;;;;;;;;8.50;8.50;;;;;11.59;53.71;101834.03;2088420;28;46405;-65
2023/04/16 03:14:27;;;;;;;;;8.25;8.25;;;;;11.59;54.03;101836.69;2088164;28;45417;-65
2023/04/16 03:15:27;;;;;;;;;8.50;7.50;;;;;11.57;53.99;101830.50;2087586;28;46337;-64
2023/04/16 03:16:27;;;;;;;;;9.00;9.00;;;;;11.55;54.00;101833.16;2088275;28;45439;-64
2023/04/16 03:17:28;;;;;;;;;9.50;9.00;;;;;11.55;53.90;101833.16;2086610;28;46170;-65
2023/04/16 03:18:28;;;;;;;;;9.50;7.25;;;;;11.54;54.16;101833.16;2088936;28;45524;-64
2023/04/16 03:19:29;;;;;;;;;6.75;6.75;;;;;11.53;54.11;101834.06;2093239;28;46765;-67
2023/04/16 03:20:29;;;;;;;;;9.25;8.50;;;;;11.50;54.14;101837.63;2084184;28;46944;-64
2023/04/16 03:21:30;;;;;;;;;9.00;9.00;;;;;11.50;54.14;101843.81;2087403;28;45789;-64
2023/04/16 03:22:30;;;;;;;;;9.00;9.00;;;;;11.50;54.32;101832.31;2087988;28;45959;-65
2023/04/16 03:23:30;;;;;;;;;8.50;8.50;;;;;11.49;54.14;101842.06;2087659;28;46633;-64
2023/04/16 03:24:31;;;;;;;;;12.00;10.50;;;;;11.50;54.03;101848.25;2087276;28;46471;-64
2023/04/16 03:25:31;;;;;;;;;8.75;8.25;;;;;11.48;54.18;101842.09;2088167;28;46521;-66
2023/04/16 03:26:31;;;;;;;;;9.00;9.00;;;;;11.46;54.13;101844.75;2087759;28;45712;-66
2023/04/16 03:27:33;;;;;;;;;11.75;10.75;;;;;11.46;54.45;101844.75;2082754;28;46458;-65
2023/04/16 03:28:33;;;;;;;;;10.60;7.60;;;;;11.45;53.94;101845.66;2087317;28;45796;-65
2023/04/16 03:29:36;;;;;;;;;10.75;10.75;;;;;11.45;54.27;101844.78;2083855;28;46378;-65
2023/04/16 03:30:37;;;;;;;;;11.40;10.00;;;;;11.44;54.44;101843.91;2086301;28;47162;-65
2023/04/16 03:31:37;;;;;;;;;9.75;9.75;;;;;11.43;54.44;101841.22;2088250;28;46524;-66
2023/04/16 03:32:38;;;;;;;;;8.75;8.75;;;;;11.42;54.21;101836.78;2089004;28;46293;-64
2023/04/16 03:33:39;;;;;;;;;10.40;9.60;;;;;11.41;54.56;101837.69;2089189;28;46037;-66
2023/04/16 03:34:39;;;;;;;;;10.00;9.00;;;;;11.42;54.44;101852.75;2088066;28;46577;-64
2023/04/16 03:35:40;;;;;;;;;9.75;9.00;;;;;11.43;54.49;101849.19;2088572;28;46776;-64
2023/04/16 03:36:40;;;;;;;;;10.00;8.25;;;;;11.44;54.68;101846.56;2088597;28;46738;-64
2023/04/16 03:37:40;;;;;;;;;13.75;12.25;;;;;11.44;54.64;101841.22;2089125;28;45722;-65
2023/04/16 03:38:41;;;;;;;;;16.00;14.00;;;;;11.45;54.46;101850.09;2088450;28;46406;-65
2023/04/16 03:39:41;;;;;;;;;17.00;16.25;;;;;11.45;54.86;101845.66;2088959;28;46243;-63
2023/04/16 03:40:41;;;;;;;;;12.25;11.00;;;;;11.45;54.44;101847.44;2088951;28;46117;-65
2023/04/16 03:41:42;;;;;;;;;11.00;11.00;;;;;11.45;54.59;101840.34;2089541;28;45161;-64
2023/04/16 03:42:42;;;;;;;;;12.75;12.75;;;;;11.45;54.76;101844.78;2089097;28;46255;-64
2023/04/16 03:43:42;;;;;;;;;12.50;11.25;;;;;11.44;54.77;101838.56;2089647;28;46441;-65
2023/04/16 03:44:43;;;;;;;;;10.25;10.25;;;;;11.42;54.65;101843.00;2088976;28;46579;-65
2023/04/16 03:45:44;;;;;;;;;10.00;10.00;;;;;11.42;54.66;101847.44;2095547;28;45048;-65
2023/04/16 03:46:45;;;;;;;;;11.00;10.60;;;;;11.40;54.64;101847.44;2098030;28;46473;-65
2023/04/16 03:47:47;;;;;;;;;13.25;11.75;;;;;11.40;54.83;101847.44;2089138;28;46129;-65
2023/04/16 03:48:47;;;;;;;;;8.60;8.60;;;;;11.41;54.81;101853.63;2085987;28;46827;-65
2023/04/16 03:49:48;;;;;;;;;10.75;10.00;;;;;11.40;54.89;101847.44;2096661;28;45982;-65
2023/04/16 03:50:48;;;;;;;;;12.25;10.00;;;;;11.40;54.91;101849.22;2097241;28;45742;-65
2023/04/16 03:51:48;;;;;;;;;9.00;8.50;;;;;11.39;54.96;101847.47;2097318;28;45881;-64
2023/04/16 03:52:48;;;;;;;;;10.50;10.50;;;;;11.38;54.87;101848.34;2097292;28;46625;-65
2023/04/16 03:53:49;;;;;;;;;9.75;9.75;;;;;11.37;54.81;101849.25;2096638;28;46799;-65
2023/04/16 03:54:49;;;;;;;;;12.25;11.00;;;;;11.37;54.83;101850.13;2087719;28;45043;-66
2023/04/16 03:55:50;;;;;;;;;9.75;9.50;;;;;11.37;54.86;101857.22;2083862;28;45903;-65
2023/04/16 03:56:50;;;;;;;;;12.00;11.50;;;;;11.36;54.90;101858.13;2085676;28;45653;-64
2023/04/16 03:57:51;;;;;;;;;10.75;10.00;;;;;11.36;55.11;101852.81;2086243;28;46203;-65
2023/04/16 03:58:51;;;;;;;;;14.00;12.75;;;;;11.35;54.99;101851.91;2087793;28;46509;-64
2023/04/16 03:59:51;;;;;;;;;12.00;10.00;;;;;11.35;55.08;101859.00;2087785;28;45879;-64
2023/04/16 04:00:54;;;;;;;;;14.00;13.00;;;;;11.35;55.19;101851.03;2076221;28;46316;-65
2023/04/16 04:01:54;;;;;;;;;13.80;12.00;;;;;11.35;55.01;101854.56;2079735;28;46878;-63
2023/04/16 04:02:55;;;;;;;;;8.00;7.00;;;;;11.35;55.30;101854.56;2088013;28;46731;-65
2023/04/16 04:03:55;;;;;;;;;12.75;11.50;;;;;11.35;54.99;101851.03;2087790;28;46663;-64
2023/04/16 04:04:55;;;;;;;;;13.00;11.75;;;;;11.36;55.26;101851.03;2087789;28;46239;-65
2023/04/16 04:05:56;;;;;;;;;9.50;9.50;;;;;11.35;54.99;101851.91;2079246;28;46776;-65
2023/04/16 04:06:56;;;;;;;;;13.00;10.25;;;;;11.37;55.08;101860.75;2079578;28;46370;-64
2023/04/16 04:07:56;;;;;;;;;12.75;11.25;;;;;11.38;55.37;101856.31;2088025;28;46477;-64
2023/04/16 04:08:58;;;;;;;;;12.00;11.00;;;;;11.37;55.08;101858.09;2087964;28;46691;-64
2023/04/16 04:09:58;;;;;;;;;14.20;11.20;;;;;11.39;55.16;101858.09;2087882;28;45686;-65
2023/04/16 04:10:59;;;;;;;;;13.00;10.75;;;;;11.40;55.04;101863.38;2087963;28;46689;-65
2023/04/16 04:11:59;;;;;;;;;11.00;11.00;;;;;11.40;55.00;101858.06;2088478;28;45223;-65
2023/04/16 04:13:02;;;;;;;;;14.00;13.25;;;;;11.42;54.92;101863.38;2088228;28;45675;-63
2023/04/16 04:14:04;;;;;;;;;12.20;12.00;;;;;11.44;55.10;101869.59;2087652;28;46376;-65
2023/04/16 04:15:05;;;;;;;;;12.60;11.00;;;;;11.44;55.12;101866.94;2088031;28;46375;-65
2023/04/16 04:16:05;;;;;;;;;15.00;13.80;;;;;11.46;55.31;101862.47;2087443;28;47240;-65
2023/04/16 04:17:07;;;;;;;;;13.00;12.25;;;;;11.45;55.14;101866.03;2087553;28;45908;-65
2023/04/16 04:18:07;;;;;;;;;11.00;9.00;;;;;11.46;55.16;101867.81;2088300;28;46504;-65
2023/04/16 04:19:07;;;;;;;;;13.75;12.25;;;;;11.44;55.47;101867.81;2087695;28;46598;-64
2023/04/16 04:20:08;;;;;;;;;15.00;13.25;;;;;11.44;55.26;101874.91;2077672;28;45980;-65
2023/04/16 04:21:09;;;;;;;;;15.50;13.50;;;;;11.41;55.52;101870.47;2072391;28;46377;-64
2023/04/16 04:22:09;;;;;;;;;12.50;12.50;;;;;11.41;55.69;101866.94;2080077;28;45959;-65
2023/04/16 04:23:09;;;;;;;;;23.75;20.50;;;;;11.40;55.73;101863.38;2083072;28;46631;-65
2023/04/16 04:24:10;;;;;;;;;18.00;17.50;;;;;11.39;55.82;101877.56;2080828;28;46503;-65
2023/04/16 04:25:10;;;;;;;;;16.25;14.25;;;;;11.37;56.18;101870.50;2086593;28;46869;-64
2023/04/16 04:26:11;;;;;;;;;18.50;18.50;;;;;11.36;56.26;101864.31;2088736;28;45855;-65
2023/04/16 04:27:11;;;;;;;;;17.50;15.25;;;;;11.33;56.26;101869.66;2094095;28;46054;-65
2023/04/16 04:28:11;;;;;;;;;17.50;17.50;;;;;11.32;56.62;101872.31;2093371;28;46057;-65
2023/04/16 04:29:12;;;;;;;;;20.50;20.00;;;;;11.29;56.97;101867.00;2087584;28;45803;-64
2023/04/16 04:30:12;;;;;;;;;21.75;18.00;;;;;11.27;57.10;101863.47;2087932;28;46271;-64
2023/04/16 04:31:13;;;;;;;;;17.50;16.50;;;;;11.24;56.78;101872.38;2096399;28;46297;-65
2023/04/16 04:32:13;;;;;;;;;14.25;13.25;;;;;11.22;57.10;101873.28;2097011;28;46621;-64
2023/04/16 04:33:13;;;;;;;;;22.00;20.50;;;;;11.19;56.99;101864.44;2096797;28;46214;-64
2023/04/16 04:34:14;;;;;;;;;19.75;18.00;;;;;11.18;56.76;101875.06;2096792;28;45717;-64
2023/04/16 04:35:14;;;;;;;;;19.00;17.00;;;;;11.16;57.20;101872.38;2096747;28;46755;-65
2023/04/16 04:36:14;;;;;;;;;19.00;17.25;;;;;11.15;57.20;101869.75;2096879;28;46704;-65
2023/04/16 04:37:15;;;;;;;;;22.50;17.00;;;;;11.14;57.01;101867.97;2090972;28;46504;-64
2023/04/16 04:38:18;;;;;;;;;20.25;16.00;;;;;11.13;57.60;101871.53;2093443;28;46037;-65
2023/04/16 04:39:20;;;;;;;;;15.20;15.20;;;;;11.10;57.29;101869.78;2099299;28;46780;-66
2023/04/16 04:40:20;;;;;;;;;20.00;19.00;;;;;11.09;57.26;101875.13;2097125;28;46680;-64